Sioux Gateway Col. Bud Day Field
KSUX : now visible

Airfield :











YOU CAN JOIN US ON...

 
LOGIN :

Register | Disclaimer

   EN    FR    IT 

 









Legend :    VFR   Marginal VFR   IFR   Intensive IFR   Very Intensive IFR
Visi :
Ceiling :
>= 8 km
>= 3000ft
5 to 8 km
1000 to 3000 ft
1500m to 5 km
500 to 1000 ft
800 to 1500m
200 to 500 ft
< 800m
< 200 ft
Symbols :   Thunderstorms  Fog  Heavy snow  Heavy precipitations  Wind > 20 kt






- Airport Elevation : 1098 ft
- IATA code : SUX


KSUX - Sioux Gateway Col. Bud Day Field

CURRENT METAR :
  • 060452Z AUTO 10004KT 10SM CLR 03/M01 A3025 RMK AO2 SLP252 T00281011

EXPIRED METARs :
  • 060352Z AUTO 11006KT 10SM CLR 02/M01 A3026 RMK AO2 SLP255 T00221006
  • 060252Z AUTO 11007KT 10SM CLR 03/00 A3025 RMK AO2 SLP254 T00330000 50003

TAF KSUX
Valid from the 06 at 06:00 until the 07 at 06:00 UTC


060521Z 0606/0706 VRB03KT P6SM BKN250
FM061200 VRB04KT 5SM BR FEW004 BKN250
FM061500 10007KT P6SM BKN250
FM061700 12014G22KT P6SM SCT250
KZMP FIR / North America



MET'MAP, your aeronautical weather chart ! - Copyright ORBIFLY December 2007 - Disclaimer

ORBIFLY MET'MAP TEAM :

Programming & Development : Alexandra Zaïnal
Concept & original design : Baudouin d'Aumeries
Assistance for programming : Marc-Olivier Méhu
Technical & hardware support : Manuel Goepfert

Contact : metmap@orbifly.com




SOURCES & CREDITS :

   NOAA       Earth
Advisory